createdAt,value
2023-03-22T00:00:45.998Z,6.51
2023-03-22T00:03:32.141Z,6.53
2023-03-22T00:06:18.990Z,6.55
2023-03-22T00:09:05.400Z,6.58
2023-03-22T00:11:52.005Z,6.60
2023-03-22T00:14:38.759Z,6.61
2023-03-22T00:17:26.914Z,6.65
2023-03-22T00:20:13.736Z,6.67
2023-03-22T00:23:00.807Z,6.68
2023-03-22T00:25:48.178Z,6.68
2023-03-22T00:28:35.715Z,6.68
2023-03-22T00:31:22.332Z,6.71
2023-03-22T00:34:09.227Z,6.73
2023-03-22T00:36:55.684Z,6.75
2023-03-22T00:39:42.504Z,6.76
2023-03-22T00:42:28.930Z,6.78
2023-03-22T00:45:15.596Z,6.78
2023-03-22T00:48:02.074Z,6.80
2023-03-22T00:50:48.813Z,6.84
2023-03-22T00:53:41.102Z,6.87
2023-03-22T00:56:29.250Z,6.89
2023-03-22T00:59:23.766Z,6.92
2023-03-22T01:02:14.084Z,6.92
2023-03-22T01:05:00.280Z,6.93
2023-03-22T01:07:50.034Z,6.93
2023-03-22T01:10:38.618Z,6.93
2023-03-22T01:13:25.243Z,6.93
2023-03-22T01:16:11.570Z,6.88
2023-03-22T01:18:58.571Z,6.90
2023-03-22T01:21:45.408Z,6.91
2023-03-22T01:24:32.428Z,6.93
2023-03-22T01:27:18.699Z,6.95
2023-03-22T01:30:06.636Z,6.97
2023-03-22T01:32:53.291Z,6.98
2023-03-22T01:35:39.748Z,7.01
2023-03-22T01:38:27.061Z,7.02
2023-03-22T01:41:17.148Z,7.03
2023-03-22T01:44:12.093Z,7.07
2023-03-22T01:46:58.662Z,7.08
2023-03-22T01:49:45.529Z,7.10
2023-03-22T01:52:31.767Z,7.12
2023-03-22T01:55:25.452Z,7.11
2023-03-22T01:58:37.459Z,7.15
2023-03-22T02:01:25.251Z,7.16
2023-03-22T02:04:22.862Z,7.18
2023-03-22T02:07:15.306Z,7.18
2023-03-22T02:10:03.525Z,7.24
2023-03-22T02:13:50.179Z,7.26
2023-03-22T02:17:59.157Z,7.31
2023-03-22T02:21:26.708Z,7.36
2023-03-22T02:25:05.837Z,7.40
2023-03-22T02:28:28.957Z,7.42
2023-03-22T02:31:49.162Z,7.43
2023-03-22T02:35:16.143Z,7.45
2023-03-22T02:38:26.578Z,7.47
2023-03-22T02:42:06.990Z,7.48
2023-03-22T02:45:04.726Z,7.48
2023-03-22T02:48:28.008Z,7.48
2023-03-22T02:51:23.927Z,7.49
2023-03-22T02:54:23.485Z,7.48
2023-03-22T02:57:20.193Z,7.50
2023-03-22T03:00:10.818Z,7.50
2023-03-22T03:03:10.539Z,7.48
2023-03-22T03:06:05.420Z,7.47
2023-03-22T03:08:57.363Z,7.44
2023-03-22T03:11:53.397Z,7.40
2023-03-22T03:14:40.330Z,7.36
2023-03-22T03:18:08.119Z,7.34
2023-03-22T03:21:50.568Z,7.31
2023-03-22T03:24:47.863Z,7.26
2023-03-22T03:27:49.192Z,7.24
2023-03-22T03:30:51.341Z,7.19
2023-03-22T03:33:47.767Z,7.16
2023-03-22T03:36:40.307Z,7.13
2023-03-22T03:39:32.716Z,7.09
2023-03-22T03:42:22.089Z,7.05
2023-03-22T03:45:09.744Z,7.02
2023-03-22T03:48:03.384Z,6.98
2023-03-22T03:50:53.493Z,6.95
2023-03-22T03:53:40.117Z,6.93
2023-03-22T03:56:26.818Z,6.93
2023-03-22T03:59:18.509Z,6.89
2023-03-22T04:02:06.207Z,6.89
2023-03-22T04:04:52.692Z,6.85
2023-03-22T04:07:39.718Z,6.87
2023-03-22T04:10:26.406Z,6.86
2023-03-22T04:13:12.785Z,6.86
2023-03-22T04:16:01.466Z,6.87
2023-03-22T04:18:50.803Z,6.86
2023-03-22T04:21:37.386Z,6.85
2023-03-22T04:24:23.948Z,6.85
2023-03-22T04:27:10.808Z,6.84
2023-03-22T04:30:19.715Z,6.82
2023-03-22T04:33:31.921Z,6.82
2023-03-22T04:36:38.814Z,6.79
2023-03-22T04:39:40.954Z,6.80
2023-03-22T04:42:50.745Z,6.78
2023-03-22T04:45:46.247Z,6.78
2023-03-22T04:48:40.817Z,6.76
2023-03-22T04:51:29.935Z,6.76
2023-03-22T04:54:42.348Z,6.75
2023-03-22T04:57:29.002Z,6.76
2023-03-22T05:00:17.995Z,6.75
2023-03-22T05:03:05.175Z,6.77
2023-03-22T05:06:07.522Z,6.79
2023-03-22T05:09:08.160Z,6.80
2023-03-22T05:11:55.217Z,6.82
2023-03-22T05:15:00.405Z,6.85
2023-03-22T05:17:50.349Z,6.88
2023-03-22T05:20:37.132Z,6.92
2023-03-22T05:23:36.534Z,6.92
2023-03-22T05:26:27.254Z,6.93
2023-03-22T05:29:14.084Z,6.94
2023-03-22T05:32:24.990Z,6.96
2023-03-22T05:35:13.503Z,6.95
2023-03-22T05:38:05.664Z,6.96
2023-03-22T05:40:54.106Z,6.97
2023-03-22T05:43:41.626Z,6.99
2023-03-22T05:46:29.907Z,7.02
2023-03-22T05:49:46.388Z,7.07
2023-03-22T05:52:32.738Z,7.11
2023-03-22T05:55:42.386Z,7.15
2023-03-22T05:58:31.096Z,7.16
2023-03-22T06:01:19.755Z,7.23
2023-03-22T06:04:06.258Z,7.24
2023-03-22T06:07:18.824Z,7.26
2023-03-22T06:10:13.968Z,7.27
2023-03-22T06:13:00.889Z,7.28
2023-03-22T06:15:49.414Z,7.31
2023-03-22T06:18:42.450Z,7.35
2023-03-22T06:21:30.933Z,7.39
2023-03-22T06:24:17.496Z,7.41
2023-03-22T06:27:05.979Z,7.44
2023-03-22T06:29:54.216Z,7.46
2023-03-22T06:32:42.996Z,7.48
2023-03-22T06:35:29.811Z,7.52
2023-03-22T06:38:16.838Z,7.56
2023-03-22T06:41:04.249Z,7.60
2023-03-22T06:43:50.751Z,7.62
2023-03-22T06:46:55.981Z,7.62
2023-03-22T06:50:01.273Z,7.60
2023-03-22T06:53:01.178Z,7.58
2023-03-22T06:55:47.962Z,7.59
2023-03-22T06:58:40.455Z,7.75
2023-03-22T07:01:27.192Z,7.96
2023-03-22T07:04:14.883Z,8.11
2023-03-22T07:07:02.787Z,8.16
2023-03-22T07:09:49.440Z,8.22
2023-03-22T07:12:36.191Z,8.36
2023-03-22T07:15:27.255Z,8.46
2023-03-22T07:18:28.285Z,8.52
2023-03-22T07:21:15.102Z,8.55
2023-03-22T07:24:02.805Z,8.61
2023-03-22T07:26:50.987Z,8.76
2023-03-22T07:29:39.662Z,9.03
2023-03-22T07:32:26.626Z,9.17
2023-03-22T07:35:39.111Z,9.20
2023-03-22T07:38:28.444Z,9.17
2023-03-22T07:41:14.873Z,9.22
2023-03-22T07:44:18.001Z,9.45
2023-03-22T07:47:39.481Z,9.94
2023-03-22T07:50:39.435Z,10.35
2023-03-22T07:53:26.438Z,10.82
2023-03-22T07:56:13.105Z,11.19
2023-03-22T07:58:59.976Z,11.29
2023-03-22T08:01:46.755Z,11.39
2023-03-22T08:04:46.438Z,11.31
2023-03-22T08:07:41.924Z,11.27
2023-03-22T08:10:31.119Z,11.10
2023-03-22T08:13:17.748Z,10.99
2023-03-22T08:16:05.740Z,10.98
2023-03-22T08:18:52.332Z,10.90
2023-03-22T08:21:39.800Z,11.01
2023-03-22T08:24:29.206Z,11.18
2023-03-22T08:27:24.928Z,11.41
2023-03-22T08:30:12.557Z,11.53
2023-03-22T08:32:59.224Z,11.63
2023-03-22T08:35:46.521Z,11.87
2023-03-22T08:38:33.400Z,11.94
2023-03-22T08:41:19.848Z,12.05
2023-03-22T08:44:06.645Z,12.26
2023-03-22T08:46:54.638Z,12.86
2023-03-22T08:49:41.502Z,13.38
2023-03-22T08:52:33.827Z,13.67
2023-03-22T08:55:24.263Z,13.82
2023-03-22T08:58:28.710Z,15.21
2023-03-22T09:01:38.504Z,17.31
2023-03-22T09:04:27.219Z,18.43
2023-03-22T09:07:14.129Z,18.78
2023-03-22T09:10:01.014Z,18.61
2023-03-22T09:12:48.398Z,18.28
2023-03-22T09:15:35.278Z,17.52
2023-03-22T09:18:28.493Z,18.59
2023-03-22T09:21:17.483Z,19.78
2023-03-22T09:24:17.718Z,20.33
2023-03-22T09:27:07.857Z,20.78
2023-03-22T09:29:54.949Z,20.32
2023-03-22T09:32:41.720Z,19.30
2023-03-22T09:35:30.426Z,18.09
2023-03-22T09:38:21.361Z,17.10
2023-03-22T09:41:20.637Z,16.24
2023-03-22T09:44:21.823Z,15.44
2023-03-22T09:47:17.277Z,14.90
2023-03-22T09:50:15.616Z,14.38
2023-03-22T09:53:02.244Z,14.00
2023-03-22T09:55:57.161Z,13.82
2023-03-22T09:59:04.184Z,13.87
2023-03-22T10:02:01.269Z,14.23
2023-03-22T10:05:31.274Z,15.07
2023-03-22T10:08:22.767Z,16.22
2023-03-22T10:11:34.237Z,16.73
2023-03-22T10:14:44.386Z,16.69
2023-03-22T10:17:31.371Z,16.77
2023-03-22T10:21:08.795Z,16.75
2023-03-22T10:24:16.645Z,17.30
2023-03-22T10:27:12.862Z,16.89
2023-03-22T10:30:23.913Z,16.56
2023-03-22T10:33:24.604Z,16.56
2023-03-22T10:36:14.397Z,17.85
2023-03-22T10:39:38.508Z,19.68
2023-03-22T10:42:29.890Z,20.09
2023-03-22T10:45:16.503Z,19.88
2023-03-22T10:48:19.130Z,19.56
2023-03-22T10:51:07.114Z,19.62
2023-03-22T10:53:57.536Z,20.50
2023-03-22T10:56:45.106Z,21.22
2023-03-22T10:59:51.614Z,21.88
2023-03-22T11:02:52.841Z,22.64
2023-03-22T11:05:39.534Z,22.63
2023-03-22T11:08:25.953Z,23.03
2023-03-22T11:11:29.469Z,23.12
2023-03-22T11:14:43.246Z,22.67
2023-03-22T11:17:30.532Z,22.76
2023-03-22T11:20:19.249Z,22.12
2023-03-22T11:23:06.427Z,21.91
2023-03-22T11:25:58.744Z,22.30
2023-03-22T11:28:50.583Z,22.57
2023-03-22T11:31:57.994Z,22.02
2023-03-22T11:34:45.432Z,21.14
2023-03-22T11:37:31.696Z,20.17
2023-03-22T11:40:34.979Z,19.51
2023-03-22T11:43:27.250Z,19.19
2023-03-22T11:46:18.721Z,19.39
2023-03-22T11:49:13.962Z,19.46
2023-03-22T11:52:10.560Z,18.90
2023-03-22T11:55:00.376Z,19.12
2023-03-22T11:57:48.597Z,19.24
2023-03-22T12:00:39.389Z,19.11
2023-03-22T12:03:35.529Z,18.77
2023-03-22T12:06:28.955Z,18.06
2023-03-22T12:09:48.432Z,17.26
2023-03-22T12:12:42.194Z,16.56
2023-03-22T12:15:36.934Z,16.22
2023-03-22T12:18:48.265Z,16.08
2023-03-22T12:21:34.890Z,15.88
2023-03-22T12:24:31.824Z,15.78
2023-03-22T12:27:33.644Z,15.52
2023-03-22T12:30:27.879Z,15.25
2023-03-22T12:33:50.975Z,14.96
2023-03-22T12:36:46.539Z,14.79
2023-03-22T12:40:01.416Z,14.80
2023-03-22T12:43:11.037Z,14.66
2023-03-22T12:46:01.432Z,14.54
2023-03-22T12:49:10.539Z,14.53
2023-03-22T12:52:13.475Z,14.43
2023-03-22T12:55:02.287Z,14.27
2023-03-22T12:57:51.830Z,14.12
2023-03-22T13:01:00.615Z,14.00
2023-03-22T13:03:54.177Z,13.88
2023-03-22T13:06:45.856Z,13.75
2023-03-22T13:09:41.894Z,13.60
2023-03-22T13:12:32.483Z,13.43
2023-03-22T13:15:41.746Z,13.32
2023-03-22T13:18:35.817Z,13.24
2023-03-22T13:21:47.888Z,13.27
2023-03-22T13:24:34.384Z,13.30
2023-03-22T13:27:20.910Z,13.17
2023-03-22T13:30:32.404Z,13.02
2023-03-22T13:33:27.979Z,12.98
2023-03-22T13:36:25.440Z,12.94
2023-03-22T13:39:16.441Z,12.93
2023-03-22T13:42:18.201Z,12.86
2023-03-22T13:45:32.817Z,12.92
2023-03-22T13:48:43.647Z,13.02
2023-03-22T13:51:32.637Z,13.10
2023-03-22T13:54:30.311Z,13.10
2023-03-22T13:57:45.801Z,13.17
2023-03-22T14:00:38.227Z,13.14
2023-03-22T14:03:36.808Z,13.17
2023-03-22T14:06:33.186Z,13.14
2023-03-22T14:09:39.145Z,13.12
2023-03-22T14:13:13.288Z,13.06
2023-03-22T14:16:21.196Z,12.98
2023-03-22T14:19:20.509Z,12.88
